Time;durP1;ratioP1;P1;durP2;ratioP2;P2;SDS_P1;SDS_P2;PMS_P1;PMS_P2;Temp;Humidity;BMP_temperature;BMP_pressure;BME280_temperature;BME280_humidity;BME280_pressure;Samples;Min_cycle;Max_cycle;Signal;HPM_P1;HPM_P2
2020/12/07 00:01:11;;;;;;;1999.90;999.90;;;5.30;99.90;;;;;;5095070;28;20096;-83
2020/12/07 00:03:38;;;;;;;1999.90;999.90;;;5.20;99.90;;;;;;5095740;28;20058;-83
2020/12/07 00:06:06;;;;;;;1999.90;999.90;;;5.20;99.90;;;;;;5095218;28;20136;-83
2020/12/07 00:08:33;;;;;;;1999.90;999.90;;;5.20;99.90;;;;;;5095984;28;20062;-83
2020/12/07 00:11:00;;;;;;;1999.90;999.90;;;5.20;99.90;;;;;;5094435;28;20044;-82
2020/12/07 00:13:27;;;;;;;1999.90;999.90;;;5.20;99.90;;;;;;5095451;28;20044;-82
2020/12/07 00:15:54;;;;;;;1999.90;999.90;;;5.20;99.90;;;;;;5095532;28;20139;-83
2020/12/07 00:18:21;;;;;;;1999.90;999.90;;;5.20;99.90;;;;;;5081082;28;20490;-83
2020/12/07 00:20:48;;;;;;;1999.90;999.90;;;5.20;99.90;;;;;;5095096;28;20040;-82
2020/12/07 00:23:15;;;;;;;1999.90;999.90;;;5.20;99.90;;;;;;5094962;28;20557;-83
2020/12/07 00:25:42;;;;;;;1999.90;999.90;;;5.20;99.90;;;;;;5098510;28;20079;-82
2020/12/07 00:28:09;;;;;;;1999.90;999.90;;;5.20;99.90;;;;;;5096776;28;20086;-83
2020/12/07 00:30:37;;;;;;;1999.90;999.90;;;5.30;99.90;;;;;;5094811;28;20402;-83
2020/12/07 00:33:04;;;;;;;1999.90;999.90;;;5.30;99.90;;;;;;5096429;28;20131;-83
2020/12/07 00:35:30;;;;;;;1999.90;999.90;;;5.30;99.90;;;;;;5095480;28;20138;-84
2020/12/07 00:37:57;;;;;;;1999.90;999.90;;;5.30;99.90;;;;;;5095852;28;20127;-83
2020/12/07 00:40:25;;;;;;;1999.90;999.90;;;5.30;99.90;;;;;;5084249;28;20054;-83
2020/12/07 00:42:52;;;;;;;1999.90;999.90;;;5.30;99.90;;;;;;5094807;28;20052;-84
2020/12/07 00:45:19;;;;;;;1999.90;999.90;;;5.30;99.90;;;;;;5093579;28;20046;-84
2020/12/07 00:47:46;;;;;;;1999.90;999.90;;;5.30;99.90;;;;;;5094562;28;20101;-84
2020/12/07 00:50:13;;;;;;;1999.90;999.90;;;5.40;99.90;;;;;;5093939;28;20107;-84
2020/12/07 00:52:40;;;;;;;1999.90;999.90;;;5.30;99.90;;;;;;5095115;28;20131;-85
2020/12/07 00:55:07;;;;;;;1999.90;999.90;;;5.30;99.90;;;;;;5095260;28;20098;-84
2020/12/07 00:57:34;;;;;;;1999.90;999.90;;;5.40;99.90;;;;;;5094852;28;20064;-84
2020/12/07 01:00:02;;;;;;;1999.90;999.90;;;5.40;99.90;;;;;;5095121;28;20109;-84
2020/12/07 01:02:32;;;;;;;1999.90;999.90;;;5.40;99.90;;;;;;5094236;28;20047;-84
2020/12/07 01:04:59;;;;;;;1999.90;999.90;;;5.40;99.90;;;;;;5094146;28;20048;-84
2020/12/07 01:07:26;;;;;;;1999.90;999.90;;;5.40;99.90;;;;;;5094706;28;20487;-84
2020/12/07 01:09:53;;;;;;;1999.90;999.90;;;5.50;99.90;;;;;;5093637;28;20062;-84
2020/12/07 01:12:20;;;;;;;1999.90;999.90;;;5.40;99.90;;;;;;5094403;28;20067;-84
2020/12/07 01:14:50;;;;;;;1999.90;999.90;;;5.50;99.90;;;;;;5094632;28;20048;-84
2020/12/07 01:17:18;;;;;;;1999.90;999.90;;;5.50;99.90;;;;;;5094288;28;20102;-84
2020/12/07 01:19:44;;;;;;;1999.90;999.90;;;5.50;99.90;;;;;;5093947;28;20447;-82
2020/12/07 01:22:12;;;;;;;1999.90;999.90;;;5.50;99.90;;;;;;5094474;28;20131;-84
2020/12/07 01:24:39;;;;;;;1999.90;999.90;;;5.50;99.90;;;;;;5094136;28;20044;-83
2020/12/07 01:27:06;;;;;;;1999.90;999.90;;;5.50;99.90;;;;;;5094307;28;20058;-84
2020/12/07 01:29:34;;;;;;;1999.90;999.90;;;5.50;99.90;;;;;;5094465;28;20136;-84
2020/12/07 01:32:04;;;;;;;1999.90;999.90;;;5.50;99.90;;;;;;5093841;28;20068;-83
2020/12/07 01:34:31;;;;;;;1999.90;999.90;;;5.50;99.90;;;;;;5094445;28;20051;-84
2020/12/07 01:36:57;;;;;;;1999.90;999.90;;;5.60;99.90;;;;;;5093575;28;20044;-83
2020/12/07 01:39:24;;;;;;;1999.90;999.90;;;5.60;99.90;;;;;;5094165;28;20048;-84
2020/12/07 01:41:51;;;;;;;1999.90;999.90;;;5.60;99.90;;;;;;5094026;28;20123;-84
2020/12/07 01:44:18;;;;;;;1999.90;999.90;;;5.60;99.90;;;;;;5094341;28;20139;-84
2020/12/07 01:46:45;;;;;;;1999.90;999.90;;;5.60;99.90;;;;;;5093944;28;20131;-84
2020/12/07 01:49:13;;;;;;;1999.90;999.90;;;5.60;99.90;;;;;;5094028;28;20067;-89
2020/12/07 01:51:40;;;;;;;1999.90;999.90;;;5.60;99.90;;;;;;5094543;28;20079;-89
2020/12/07 01:54:08;;;;;;;1999.90;999.90;;;5.70;99.90;;;;;;5089106;28;20040;-88
2020/12/07 01:56:37;;;;;;;1999.90;999.90;;;5.60;99.90;;;;;;5089127;28;20055;-89
2020/12/07 01:59:04;;;;;;;1999.90;999.90;;;5.60;99.90;;;;;;5093017;28;20486;-89
2020/12/07 02:01:36;;;;;;;1999.90;999.90;;;5.70;99.90;;;;;;5094521;28;20131;-89
2020/12/07 02:04:03;;;;;;;1999.90;999.90;;;5.70;99.90;;;;;;5084892;28;20056;-88
2020/12/07 02:06:31;;;;;;;1999.90;999.90;;;5.70;99.90;;;;;;5087479;28;20748;-84
2020/12/07 02:08:58;;;;;;;1999.90;999.90;;;5.70;99.90;;;;;;5093288;28;20066;-84
2020/12/07 02:11:25;;;;;;;1999.90;999.90;;;5.70;99.90;;;;;;5091939;28;20040;-84
2020/12/07 02:13:52;;;;;;;1999.90;999.90;;;5.70;99.90;;;;;;5093522;28;20048;-84
2020/12/07 02:16:19;;;;;;;1999.90;999.90;;;5.80;99.90;;;;;;5093144;28;20127;-84
2020/12/07 02:18:46;;;;;;;1999.90;999.90;;;5.80;99.90;;;;;;5092521;28;20130;-85
2020/12/07 02:21:14;;;;;;;1999.90;999.90;;;5.80;99.90;;;;;;5092942;28;20518;-84
2020/12/07 02:23:40;;;;;;;1999.90;999.90;;;5.80;99.90;;;;;;5092547;28;20058;-84
2020/12/07 02:26:07;;;;;;;1999.90;999.90;;;5.80;99.90;;;;;;5093227;28;20054;-85
2020/12/07 02:28:34;;;;;;;1999.90;999.90;;;5.80;99.90;;;;;;5092856;28;20051;-84
2020/12/07 02:31:01;;;;;;;1999.90;999.90;;;5.80;99.90;;;;;;5093293;28;20091;-84
2020/12/07 02:33:29;;;;;;;1999.90;999.90;;;5.80;99.90;;;;;;5092765;28;20475;-85
2020/12/07 02:35:56;;;;;;;1999.90;999.90;;;5.80;99.90;;;;;;5092499;28;20040;-84
2020/12/07 02:38:23;;;;;;;1999.90;999.90;;;5.80;99.90;;;;;;5093221;28;20052;-84
2020/12/07 02:40:51;;;;;;;1999.90;999.90;;;5.80;99.90;;;;;;5093151;28;20468;-84
2020/12/07 02:43:17;;;;;;;1999.90;999.90;;;5.80;99.90;;;;;;5092510;28;20047;-84
2020/12/07 02:45:44;;;;;;;1999.90;999.90;;;5.70;99.90;;;;;;5092574;28;20068;-84
2020/12/07 02:48:11;;;;;;;1999.90;999.90;;;5.80;99.90;;;;;;5093293;28;20141;-84
2020/12/07 02:50:38;;;;;;;1999.90;999.90;;;5.80;99.90;;;;;;5092310;28;20047;-84
2020/12/07 02:53:05;;;;;;;1999.90;999.90;;;5.70;99.90;;;;;;5092836;28;20127;-84
2020/12/07 02:55:33;;;;;;;1999.90;999.90;;;5.70;99.90;;;;;;5092957;28;20052;-84
2020/12/07 02:58:00;;;;;;;1999.90;999.90;;;5.70;99.90;;;;;;5091955;28;20506;-84
2020/12/07 03:00:26;;;;;;;1999.90;999.90;;;5.70;99.90;;;;;;5093182;28;20043;-84
2020/12/07 03:02:53;;;;;;;1999.90;999.90;;;5.70;99.90;;;;;;5092591;28;20135;-83
2020/12/07 03:05:20;;;;;;;1999.90;999.90;;;5.70;99.90;;;;;;5092231;28;20569;-84
2020/12/07 03:07:47;;;;;;;1999.90;999.90;;;5.70;99.90;;;;;;5088346;28;20143;-84
2020/12/07 03:10:14;;;;;;;1999.90;999.90;;;5.70;99.90;;;;;;5092515;28;20055;-84
2020/12/07 03:12:42;;;;;;;1999.90;999.90;;;5.70;99.90;;;;;;5091759;28;20440;-83
2020/12/07 03:15:09;;;;;;;1999.90;999.90;;;5.70;99.90;;;;;;5092625;28;20143;-83
2020/12/07 03:17:36;;;;;;;1999.90;999.90;;;5.70;99.90;;;;;;5092558;28;20407;-83
2020/12/07 03:20:03;;;;;;;1999.90;999.90;;;5.70;99.90;;;;;;5091231;28;20040;-83
2020/12/07 03:22:30;;;;;;;1999.90;999.90;;;5.80;99.90;;;;;;5091930;28;20051;-84
2020/12/07 03:24:57;;;;;;;1999.90;999.90;;;5.70;99.90;;;;;;5091966;28;20051;-83
2020/12/07 03:27:24;;;;;;;1999.90;999.90;;;5.80;99.90;;;;;;5091428;28;20044;-84
2020/12/07 03:29:53;;;;;;;1999.90;999.90;;;5.80;99.90;;;;;;5090914;28;20055;-83
2020/12/07 03:32:20;;;;;;;1999.90;999.90;;;5.80;99.90;;;;;;5109488;28;20066;-83
2020/12/07 03:34:47;;;;;;;1999.90;999.90;;;5.70;99.90;;;;;;5093417;28;20079;-83
2020/12/07 03:37:14;;;;;;;1999.90;999.90;;;5.80;99.90;;;;;;5092257;28;20048;-84
2020/12/07 03:39:41;;;;;;;1999.90;999.90;;;5.70;99.90;;;;;;5088476;28;20438;-83
2020/12/07 03:42:07;;;;;;;1999.90;999.90;;;5.70;99.90;;;;;;5088390;28;20555;-82
2020/12/07 03:44:34;;;;;;;1999.90;999.90;;;5.70;99.90;;;;;;5091148;28;20052;-83
2020/12/07 03:47:02;;;;;;;1999.90;999.90;;;5.70;99.90;;;;;;5092060;28;20134;-83
2020/12/07 03:49:29;;;;;;;1999.90;999.90;;;5.70;99.90;;;;;;5092168;28;20249;-83
2020/12/07 03:51:56;;;;;;;1999.90;999.90;;;5.70;99.90;;;;;;5091479;28;20086;-83
2020/12/07 03:54:23;;;;;;;1999.90;999.90;;;5.70;99.90;;;;;;5091666;28;20127;-83
2020/12/07 03:56:50;;;;;;;1999.90;999.90;;;5.70;99.90;;;;;;5091343;28;20101;-84
2020/12/07 03:59:17;;;;;;;1999.90;999.90;;;5.70;99.90;;;;;;5092268;28;20531;-83
2020/12/07 04:01:44;;;;;;;1999.90;999.90;;;5.70;99.90;;;;;;5091712;28;20127;-83
2020/12/07 04:04:17;;;;;;;1999.90;999.90;;;5.70;99.90;;;;;;5091940;28;20131;-84
2020/12/07 04:06:45;;;;;;;1999.90;999.90;;;5.70;99.90;;;;;;5091542;28;20044;-84
2020/12/07 04:09:12;;;;;;;1999.90;999.90;;;5.70;99.90;;;;;;5091671;28;20048;-83
2020/12/07 04:11:39;;;;;;;1999.90;999.90;;;5.80;99.90;;;;;;5092522;28;20055;-83
2020/12/07 04:14:06;;;;;;;1999.90;999.90;;;5.80;99.90;;;;;;5091310;28;20044;-83
2020/12/07 04:16:33;;;;;;;1999.90;999.90;;;5.80;99.90;;;;;;5091094;28;20502;-83
2020/12/07 04:19:00;;;;;;;1999.90;999.90;;;5.80;99.90;;;;;;5092809;28;20063;-83
2020/12/07 04:21:28;;;;;;;1999.90;999.90;;;5.80;99.90;;;;;;5095026;28;20072;-83
2020/12/07 04:23:55;;;;;;;1999.90;999.90;;;5.80;99.90;;;;;;5095181;28;20199;-83
2020/12/07 04:26:22;;;;;;;1999.90;999.90;;;5.80;99.90;;;;;;5095133;28;20043;-83
2020/12/07 04:28:50;;;;;;;1999.90;999.90;;;5.80;99.90;;;;;;5095216;28;20048;-83
2020/12/07 04:31:17;;;;;;;1999.90;999.90;;;5.80;99.90;;;;;;5094810;28;20071;-84
2020/12/07 04:33:44;;;;;;;1999.90;999.90;;;5.90;99.90;;;;;;5094857;28;20048;-83
2020/12/07 04:36:10;;;;;;;1999.90;999.90;;;5.80;99.90;;;;;;5094478;28;20050;-82
2020/12/07 04:38:39;;;;;;;1999.90;999.90;;;5.90;99.90;;;;;;5095229;28;20133;-83
2020/12/07 04:41:07;;;;;;;1999.90;999.90;;;5.90;99.90;;;;;;5095000;28;20051;-83
2020/12/07 04:43:35;;;;;;;1999.90;999.90;;;5.90;99.90;;;;;;5095025;28;20048;-82
2020/12/07 04:46:03;;;;;;;1999.90;999.90;;;6.00;99.90;;;;;;5095268;28;20055;-83
2020/12/07 04:48:30;;;;;;;1999.90;999.90;;;5.90;99.90;;;;;;5094302;28;20083;-83
2020/12/07 04:51:00;;;;;;;1999.90;999.90;;;6.00;99.90;;;;;;5094454;28;20501;-83
2020/12/07 04:53:28;;;;;;;1999.90;999.90;;;6.00;99.90;;;;;;5094953;28;20127;-82
2020/12/07 04:55:57;;;;;;;1999.90;999.90;;;6.00;99.90;;;;;;5094667;28;20170;-82
2020/12/07 04:58:26;;;;;;;1999.90;999.90;;;6.00;99.90;;;;;;5094444;28;20054;-83
2020/12/07 05:00:53;;;;;;;1999.90;999.90;;;6.00;99.90;;;;;;5093372;28;20555;-83
2020/12/07 05:03:20;;;;;;;1999.90;999.90;;;6.00;99.90;;;;;;5094464;28;20048;-83
2020/12/07 05:05:51;;;;;;;1999.90;999.90;;;6.00;99.90;;;;;;5094146;28;20502;-83
2020/12/07 05:08:18;;;;;;;1999.90;999.90;;;6.00;99.90;;;;;;5094776;28;20075;-83
2020/12/07 05:10:47;;;;;;;1999.90;999.90;;;6.00;99.90;;;;;;5094249;28;20048;-83
2020/12/07 05:13:22;;;;;;;1999.90;999.90;;;6.00;99.90;;;;;;5093321;28;20044;-83
2020/12/07 05:15:49;;;;;;;1999.90;999.90;;;6.00;99.90;;;;;;5077415;28;20135;-83
2020/12/07 05:18:16;;;;;;;1999.90;999.90;;;6.00;99.90;;;;;;5082921;28;20062;-83
2020/12/07 05:20:43;;;;;;;1999.90;999.90;;;6.10;99.90;;;;;;5094123;28;20044;-83
2020/12/07 05:23:15;;;;;;;1999.90;999.90;;;6.00;99.90;;;;;;5093541;28;20048;-83
2020/12/07 05:25:43;;;;;;;1999.90;999.90;;;6.00;99.90;;;;;;5094715;28;20052;-83
2020/12/07 05:28:12;;;;;;;1999.90;999.90;;;6.00;99.90;;;;;;5093832;28;20604;-83
2020/12/07 05:30:42;;;;;;;1999.90;999.90;;;6.00;99.90;;;;;;5081231;28;20074;-83
2020/12/07 05:33:12;;;;;;;1999.90;999.90;;;6.00;99.90;;;;;;5083374;28;20454;-83
2020/12/07 05:35:40;;;;;;;1999.90;999.90;;;6.00;99.90;;;;;;5088242;28;20048;-83
2020/12/07 05:38:07;;;;;;;1999.90;999.90;;;6.00;99.90;;;;;;5092316;28;20047;-82
2020/12/07 05:40:34;;;;;;;1999.90;999.90;;;6.10;99.90;;;;;;5094666;28;20044;-83
2020/12/07 05:43:01;;;;;;;1999.90;999.90;;;6.10;99.90;;;;;;5093491;28;20131;-83
2020/12/07 05:45:28;;;;;;;1999.90;999.90;;;6.10;99.90;;;;;;5093678;28;20054;-83
2020/12/07 05:47:58;;;;;;;1999.90;999.90;;;6.00;99.90;;;;;;5093933;28;20139;-83
2020/12/07 05:50:27;;;;;;;1999.90;999.90;;;6.00;99.90;;;;;;5081338;28;20047;-83
2020/12/07 05:52:59;;;;;;;1999.90;999.90;;;6.00;99.90;;;;;;5093097;28;20076;-83
2020/12/07 05:55:26;;;;;;;1999.90;999.90;;;6.00;99.90;;;;;;5093549;28;20050;-83
2020/12/07 05:58:02;;;;;;;1999.90;999.90;;;6.00;99.90;;;;;;5093731;28;20072;-83
2020/12/07 06:00:31;;;;;;;1999.90;999.90;;;6.00;99.90;;;;;;5093439;28;20088;-82
2020/12/07 06:03:00;;;;;;;1999.90;999.90;;;6.00;99.90;;;;;;5093433;28;20048;-83
2020/12/07 06:05:27;;;;;;;1999.90;999.90;;;6.00;99.90;;;;;;5093218;28;20059;-82
2020/12/07 06:07:59;;;;;;;1999.90;999.90;;;6.10;99.90;;;;;;5093616;28;20078;-83
2020/12/07 06:10:32;;;;;;;1999.90;999.90;;;6.10;99.90;;;;;;5092756;28;20048;-83
2020/12/07 06:13:02;;;;;;;1999.90;999.90;;;6.10;99.90;;;;;;5091148;28;20044;-83
2020/12/07 06:15:31;;;;;;;1999.90;999.90;;;6.10;99.90;;;;;;5093685;28;20135;-83
2020/12/07 06:17:59;;;;;;;1999.90;999.90;;;6.10;99.90;;;;;;5093637;28;20465;-83
2020/12/07 06:20:30;;;;;;;1999.90;999.90;;;6.10;99.90;;;;;;5093094;28;20048;-83
2020/12/07 06:22:58;;;;;;;1999.90;999.90;;;6.10;99.90;;;;;;5094079;28;20062;-83
2020/12/07 06:25:27;;;;;;;1999.90;999.90;;;6.10;99.90;;;;;;5094374;28;20151;-82
2020/12/07 06:27:57;;;;;;;1999.90;999.90;;;6.10;99.90;;;;;;5094604;28;20097;-83
2020/12/07 06:30:31;;;;;;;1999.90;999.90;;;6.10;99.90;;;;;;5094220;28;20160;-83
2020/12/07 06:33:05;;;;;;;1999.90;999.90;;;6.10;99.90;;;;;;5092190;28;20051;-82
2020/12/07 06:35:43;;;;;;;1999.90;999.90;;;6.20;99.90;;;;;;5094493;28;20386;-83
2020/12/07 06:38:10;;;;;;;;;;;6.20;99.90;;;;;;5091869;28;20136;-83
2020/12/07 06:40:40;;;;;;;1999.90;999.90;;;6.20;99.90;;;;;;5089027;28;20011;-83
2020/12/07 06:43:24;;;;;;;1999.90;999.90;;;6.20;99.90;;;;;;5091431;28;20040;-83
2020/12/07 06:45:51;;;;;;;1999.90;999.90;;;6.20;99.90;;;;;;5093856;28;20044;-92
2020/12/07 06:48:23;;;;;;;1999.90;999.90;;;6.20;99.90;;;;;;5094422;28;20055;-92
2020/12/07 06:50:52;;;;;;;1999.90;999.90;;;6.20;99.90;;;;;;5094417;28;20127;-91
2020/12/07 06:53:36;;;;;;;1999.90;999.90;;;6.30;99.90;;;;;;5094661;28;20052;-92
2020/12/07 06:56:03;;;;;;;1999.90;999.90;;;6.30;99.90;;;;;;5094607;28;20486;-92
2020/12/07 06:58:34;;;;;;;1999.90;999.90;;;6.30;99.90;;;;;;5094373;28;20127;-92
2020/12/07 07:01:10;;;;;;;1999.90;999.90;;;6.30;99.90;;;;;;5097081;28;20122;-92
2020/12/07 07:03:50;;;;;;;1999.90;999.90;;;6.30;99.90;;;;;;5092927;28;20071;-92
2020/12/07 07:06:21;;;;;;;1999.90;999.90;;;6.30;99.90;;;;;;5095254;28;20047;-92
2020/12/07 07:08:48;;;;;;;1999.90;999.90;;;6.30;99.90;;;;;;5092761;28;20482;-92
2020/12/07 07:11:16;;;;;;;1999.90;999.90;;;6.30;99.90;;;;;;5093765;28;20104;-91
2020/12/07 07:13:48;;;;;;;1999.90;999.90;;;6.30;99.90;;;;;;5093360;28;20052;-92
2020/12/07 07:16:16;;;;;;;1999.90;999.90;;;6.30;99.90;;;;;;5092254;28;20048;-92
2020/12/07 07:18:43;;;;;;;1999.90;999.90;;;6.30;99.90;;;;;;5094136;28;20490;-92
2020/12/07 07:21:11;;;;;;;1999.90;999.90;;;6.30;99.90;;;;;;5094634;28;20059;-87
2020/12/07 07:23:43;;;;;;;1999.90;999.90;;;6.30;99.90;;;;;;5099229;28;20075;-87
2020/12/07 07:26:14;;;;;;;1999.90;999.90;;;6.30;99.90;;;;;;5088151;28;20086;-86
2020/12/07 07:28:41;;;;;;;1999.90;999.90;;;6.30;99.90;;;;;;5087539;28;20056;-86
2020/12/07 07:31:10;;;;;;;1999.90;999.90;;;6.30;99.90;;;;;;5092172;28;20066;-86
2020/12/07 07:33:37;;;;;;;1999.90;999.90;;;6.30;99.90;;;;;;5092185;28;20070;-87
2020/12/07 07:36:04;;;;;;;1999.90;999.90;;;6.30;99.90;;;;;;5091849;28;20417;-87
2020/12/07 07:38:37;;;;;;;1999.90;999.90;;;6.30;99.90;;;;;;5092642;28;20048;-87
2020/12/07 07:41:04;;;;;;;1999.90;999.90;;;6.30;99.90;;;;;;5088817;28;20075;-87
2020/12/07 07:43:31;;;;;;;1999.90;999.90;;;6.30;99.90;;;;;;5092070;28;20078;-87
2020/12/07 07:46:00;;;;;;;1999.90;999.90;;;6.30;99.90;;;;;;5090922;28;20083;-86
2020/12/07 07:48:36;;;;;;;1999.90;999.90;;;6.30;99.90;;;;;;5091930;28;20059;-86
2020/12/07 08:16:22;;;;;;;1999.90;999.90;;;6.40;99.90;;;;;;5090157;28;20846;-92
2020/12/07 08:18:54;;;;;;;1999.90;999.90;;;6.40;99.90;;;;;;5096212;28;20132;-92
2020/12/07 08:21:32;;;;;;;1999.90;999.90;;;6.40;99.90;;;;;;5096379;28;20086;-92
2020/12/07 08:24:06;;;;;;;1999.90;999.90;;;6.40;99.90;;;;;;5092077;28;20364;-92
2020/12/07 08:26:41;;;;;;;1999.90;999.90;;;6.40;99.90;;;;;;5090059;28;20811;-92
2020/12/07 08:29:08;;;;;;;1999.90;999.90;;;6.30;99.90;;;;;;5096118;28;20079;-92
2020/12/07 08:31:36;;;;;;;1999.90;999.90;;;6.40;99.90;;;;;;5096151;28;20055;-92
2020/12/07 08:34:07;;;;;;;1999.90;999.90;;;6.40;99.90;;;;;;5095515;28;20060;-92
2020/12/07 08:36:35;;;;;;;1999.90;999.90;;;6.40;99.90;;;;;;5081234;28;20076;-92
2020/12/07 08:39:04;;;;;;;1999.90;999.90;;;6.40;99.90;;;;;;5094975;28;20139;-90
2020/12/07 08:41:33;;;;;;;1999.90;999.90;;;6.40;99.90;;;;;;5091485;28;20136;-90
2020/12/07 08:44:03;;;;;;;1999.90;999.90;;;6.40;99.90;;;;;;5092976;28;20245;-89
2020/12/07 08:46:32;;;;;;;1999.90;999.90;;;6.40;99.90;;;;;;5093136;28;20048;-90
2020/12/07 08:49:00;;;;;;;1999.90;999.90;;;6.40;99.90;;;;;;5093573;28;20115;-87
2020/12/07 08:51:29;;;;;;;1999.90;999.90;;;6.30;99.90;;;;;;5092651;28;20063;-89
2020/12/07 08:53:57;;;;;;;1999.90;999.90;;;6.40;99.90;;;;;;5093225;28;20052;-89
2020/12/07 08:56:24;;;;;;;1999.90;999.90;;;6.30;99.90;;;;;;5093068;28;20087;-89
2020/12/07 08:58:52;;;;;;;1999.90;999.90;;;6.30;99.90;;;;;;5092513;28;20051;-92
2020/12/07 09:01:20;;;;;;;1999.90;999.90;;;6.30;99.90;;;;;;5093649;28;20143;-92
2020/12/07 09:03:47;;;;;;;1999.90;999.90;;;6.30;99.90;;;;;;5090019;28;20447;-92
2020/12/07 09:06:15;;;;;;;1999.90;999.90;;;6.30;99.90;;;;;;5093412;28;20060;-91
2020/12/07 09:08:43;;;;;;;1999.90;999.90;;;6.30;99.90;;;;;;5093486;28;20084;-91
2020/12/07 09:11:11;;;;;;;1999.90;999.90;;;6.30;99.90;;;;;;5094271;28;20127;-92
2020/12/07 09:13:39;;;;;;;1999.90;999.90;;;6.30;99.90;;;;;;5091591;28;20044;-91
2020/12/07 09:16:07;;;;;;;1999.90;999.90;;;6.40;99.90;;;;;;5093789;28;20055;-92
2020/12/07 09:18:35;;;;;;;1999.90;999.90;;;6.40;99.90;;;;;;5082754;28;20079;-91
2020/12/07 09:21:03;;;;;;;1999.90;999.90;;;6.40;99.90;;;;;;5077856;28;20094;-91
2020/12/07 09:23:30;;;;;;;1999.90;999.90;;;6.40;99.90;;;;;;5089054;28;20487;-91
2020/12/07 09:25:58;;;;;;;1999.90;999.90;;;6.40;99.90;;;;;;5093211;28;20055;-92
2020/12/07 09:28:25;;;;;;;1999.90;999.90;;;6.40;99.90;;;;;;5094070;28;20072;-92
2020/12/07 09:30:51;;;;;;;1999.90;999.90;;;6.40;99.90;;;;;;5092985;28;20048;-92
2020/12/07 09:33:19;;;;;;;1999.90;999.90;;;6.50;99.90;;;;;;5093120;28;20079;-91
2020/12/07 09:35:46;;;;;;;1999.90;999.90;;;6.40;99.90;;;;;;5092902;28;20048;-91
2020/12/07 09:38:13;;;;;;;1999.90;999.90;;;6.40;99.90;;;;;;5092889;28;20075;-91
2020/12/07 09:40:40;;;;;;;1999.90;999.90;;;6.40;99.90;;;;;;5092835;28;20138;-92
2020/12/07 09:43:07;;;;;;;1999.90;999.90;;;6.40;99.90;;;;;;5092625;28;20044;-91
2020/12/07 09:45:35;;;;;;;1999.90;999.90;;;6.40;99.90;;;;;;5081377;28;20067;-91
2020/12/07 09:48:02;;;;;;;1999.90;999.90;;;6.40;99.90;;;;;;5092920;28;20071;-91
2020/12/07 09:50:33;;;;;;;1999.90;999.90;;;6.40;99.90;;;;;;5092507;28;20055;-92
2020/12/07 09:53:01;;;;;;;1999.90;999.90;;;6.40;99.90;;;;;;5092945;28;20348;-92
2020/12/07 09:55:28;;;;;;;1999.90;999.90;;;6.40;99.90;;;;;;5092643;28;20044;-92
2020/12/07 09:57:55;;;;;;;1999.90;999.90;;;6.40;99.90;;;;;;5092681;28;20094;-91
2020/12/07 10:00:22;;;;;;;1999.90;999.90;;;6.40;99.90;;;;;;5091605;28;20145;-92
2020/12/07 10:02:50;;;;;;;1999.90;999.90;;;6.40;99.90;;;;;;5092180;28;20072;-92
2020/12/07 10:05:17;;;;;;;1999.90;999.90;;;6.50;99.90;;;;;;5075572;28;20457;-92
2020/12/07 10:07:44;;;;;;;1999.90;999.90;;;6.40;99.90;;;;;;5088817;28;20154;-92
2020/12/07 10:10:12;;;;;;;1999.90;999.90;;;6.40;99.90;;;;;;5092290;28;20419;-91
2020/12/07 10:12:40;;;;;;;1999.90;999.90;;;6.40;99.90;;;;;;5092478;28;20083;-91
2020/12/07 10:15:08;;;;;;;1999.90;999.90;;;6.40;99.90;;;;;;5092321;28;20482;-91
2020/12/07 10:17:35;;;;;;;1999.90;999.90;;;6.40;99.90;;;;;;5091845;28;20131;-92
2020/12/07 10:20:02;;;;;;;1999.90;999.90;;;6.40;99.90;;;;;;5094342;28;20075;-92
2020/12/07 10:22:29;;;;;;;1999.90;999.90;;;6.40;99.90;;;;;;5097909;28;20068;-92
2020/12/07 10:24:56;;;;;;;1999.90;999.90;;;6.30;99.90;;;;;;5097316;28;20429;-91
2020/12/07 10:27:24;;;;;;;1999.90;999.90;;;6.30;99.90;;;;;;5093840;28;20140;-92
2020/12/07 10:29:51;;;;;;;1999.90;999.90;;;6.30;99.90;;;;;;5091963;28;20139;-91
2020/12/07 10:32:19;;;;;;;1999.90;999.90;;;6.40;99.90;;;;;;5092855;28;20056;-92
2020/12/07 10:34:46;;;;;;;1999.90;999.90;;;6.40;99.90;;;;;;5091942;28;20063;-91
2020/12/07 10:37:15;;;;;;;1999.90;999.90;;;6.40;99.90;;;;;;5092402;28;20056;-84
2020/12/07 10:39:42;;;;;;;1999.90;999.90;;;6.40;99.90;;;;;;5093313;28;20139;-83
2020/12/07 10:42:09;;;;;;;1999.90;999.90;;;6.40;99.90;;;;;;5093797;28;20109;-84
2020/12/07 10:44:37;;;;;;;1999.90;999.90;;;6.50;99.90;;;;;;5079578;28;20071;-84
2020/12/07 10:47:04;;;;;;;1999.90;999.90;;;6.40;99.90;;;;;;5076889;28;20552;-84
2020/12/07 10:49:31;;;;;;;1999.90;999.90;;;6.50;99.90;;;;;;5090436;28;20056;-84
2020/12/07 10:52:00;;;;;;;1999.90;999.90;;;6.40;99.90;;;;;;5090300;28;20142;-84
2020/12/07 10:54:26;;;;;;;1999.90;999.90;;;6.50;99.90;;;;;;5090564;28;20050;-84
2020/12/07 10:56:54;;;;;;;1999.90;999.90;;;6.50;99.90;;;;;;5090327;28;20173;-84
2020/12/07 10:59:21;;;;;;;1999.90;999.90;;;6.60;99.90;;;;;;5090123;28;20071;-84
2020/12/07 11:01:52;;;;;;;1999.90;999.90;;;6.60;99.90;;;;;;5078762;28;20110;-85
2020/12/07 11:04:19;;;;;;;1999.90;999.90;;;6.60;99.90;;;;;;5088822;28;20054;-85
2020/12/07 11:06:48;;;;;;;1999.90;999.90;;;6.60;99.90;;;;;;5090083;28;20055;-85
2020/12/07 11:09:17;;;;;;;1999.90;999.90;;;6.60;99.90;;;;;;5076588;28;20140;-84
2020/12/07 11:11:44;;;;;;;1999.90;999.90;;;6.60;99.90;;;;;;5090210;28;20060;-85
2020/12/07 11:14:11;;;;;;;1999.90;999.90;;;6.60;99.90;;;;;;5084519;28;20048;-84
2020/12/07 11:16:38;;;;;;;1999.90;999.90;;;6.60;99.90;;;;;;5080942;28;20058;-85
2020/12/07 11:19:07;;;;;;;1999.90;999.90;;;6.60;99.90;;;;;;5089544;28;20127;-84
2020/12/07 11:21:34;;;;;;;1999.90;999.90;;;6.60;99.90;;;;;;5082145;28;20064;-85
2020/12/07 11:24:01;;;;;;;1999.90;999.90;;;6.60;99.90;;;;;;5083962;28;20052;-84
2020/12/07 11:26:28;;;;;;;1999.90;999.90;;;6.70;99.90;;;;;;5089377;28;20440;-85
2020/12/07 11:28:55;;;;;;;1999.90;999.90;;;6.60;99.90;;;;;;5089077;28;20139;-85
2020/12/07 11:31:22;;;;;;;1999.90;999.90;;;6.70;99.90;;;;;;5089539;28;20178;-85
2020/12/07 11:33:49;;;;;;;1999.90;999.90;;;6.60;99.90;;;;;;5090167;28;20139;-84
2020/12/07 11:36:17;;;;;;;1999.90;999.90;;;6.70;99.90;;;;;;5089405;28;20075;-85
2020/12/07 11:38:48;;;;;;;1999.90;999.90;;;6.70;99.90;;;;;;5078914;28;20463;-85
2020/12/07 11:41:28;;;;;;;1999.90;999.90;;;6.60;99.90;;;;;;5089905;28;20135;-84
2020/12/07 11:44:07;;;;;;;1999.90;999.90;;;6.60;99.90;;;;;;5089484;28;20123;-84
2020/12/07 11:46:36;;;;;;;1999.90;999.90;;;6.60;99.90;;;;;;5089793;28;20090;-84
2020/12/07 11:49:04;;;;;;;1999.90;999.90;;;6.60;99.90;;;;;;5089878;28;20147;-84
2020/12/07 11:51:32;;;;;;;1999.90;999.90;;;6.60;99.90;;;;;;5089661;28;20060;-84
2020/12/07 11:54:00;;;;;;;1999.90;999.90;;;6.40;99.90;;;;;;5090331;28;20071;-84
2020/12/07 11:56:28;;;;;;;1999.90;999.90;;;6.40;99.90;;;;;;5090744;28;20048;-84
2020/12/07 11:58:55;;;;;;;1999.90;999.90;;;6.40;99.90;;;;;;5091408;28;20072;-84
2020/12/07 12:01:22;;;;;;;1999.90;999.90;;;6.30;99.90;;;;;;5092587;28;20119;-84
2020/12/07 12:03:50;;;;;;;1999.90;999.90;;;6.30;99.90;;;;;;5090954;28;20047;-84
2020/12/07 12:06:24;;;;;;;1999.90;999.90;;;6.30;99.90;;;;;;5089180;28;20040;-85
2020/12/07 12:08:54;;;;;;;1999.90;999.90;;;6.40;99.90;;;;;;5079446;28;20051;-85
2020/12/07 12:11:26;;;;;;;1999.90;999.90;;;6.40;99.90;;;;;;5089587;28;20044;-84
2020/12/07 12:13:53;;;;;;;1999.90;999.90;;;6.40;99.90;;;;;;5087392;28;20044;-84
2020/12/07 12:16:20;;;;;;;1999.90;999.90;;;6.40;99.90;;;;;;5091752;28;20118;-85
2020/12/07 12:18:59;;;;;;;1999.90;999.90;;;6.40;99.90;;;;;;5091361;28;20056;-85
2020/12/07 12:21:28;;;;;;;1999.90;999.90;;;6.40;99.90;;;;;;5091112;28;20051;-84
2020/12/07 12:23:57;;;;;;;1999.90;999.90;;;6.50;99.90;;;;;;5091148;28;20044;-84
2020/12/07 12:26:23;;;;;;;1999.90;999.90;;;6.50;99.90;;;;;;5090330;28;20047;-84
2020/12/07 12:28:51;;;;;;;1999.90;999.90;;;6.50;99.90;;;;;;5090080;28;20498;-84
2020/12/07 12:31:19;;;;;;;1999.90;999.90;;;6.40;99.90;;;;;;5091118;28;20048;-84
2020/12/07 12:33:47;;;;;;;1999.90;999.90;;;6.40;99.90;;;;;;5091234;28;20052;-84
2020/12/07 12:36:17;;;;;;;1999.90;999.90;;;6.40;99.90;;;;;;5090943;28;20066;-84
2020/12/07 12:38:44;;;;;;;1999.90;999.90;;;6.50;99.90;;;;;;5082153;28;20060;-84